Time;durP1;ratioP1;P1;durP2;ratioP2;P2;SDS_P1;SDS_P2;PMS_P1;PMS_P2;Temp;Humidity;BMP_temperature;BMP_pressure;BME280_temperature;BME280_humidity;BME280_pressure;Samples;Min_cycle;Max_cycle;Signal;HPM_P1;HPM_P2
2021/12/27 00:00:20;;;;;;;3.90;2.75;;;18.70;38.00;;;;;;5095778;28;20026;-88
2021/12/27 00:02:48;;;;;;;4.05;2.70;;;18.70;38.10;;;;;;5114041;28;20031;-95
2021/12/27 00:05:15;;;;;;;3.08;2.40;;;18.70;38.20;;;;;;5095493;28;20061;-87
2021/12/27 00:07:41;;;;;;;3.17;2.50;;;18.60;38.20;;;;;;5095769;28;20026;-93
2021/12/27 00:10:07;;;;;;;3.65;2.58;;;18.60;38.20;;;;;;5113861;28;20022;-93
2021/12/27 00:12:33;;;;;;;3.05;2.67;;;18.60;38.40;;;;;;5113691;28;20407;-90
2021/12/27 00:14:59;;;;;;;4.13;2.72;;;18.50;38.30;;;;;;5129686;27;20030;-88
2021/12/27 00:17:24;;;;;;;2.58;2.35;;;18.50;38.30;;;;;;5113579;28;20039;-93
2021/12/27 00:19:50;;;;;;;4.53;3.00;;;18.50;38.40;;;;;;5095015;28;20020;-92
2021/12/27 00:22:16;;;;;;;4.63;2.70;;;18.50;38.40;;;;;;5113402;28;20368;-91
2021/12/27 00:24:46;;;;;;;3.70;2.83;;;18.40;38.30;;;;;;5095572;28;20084;-91
2021/12/27 00:27:13;;;;;;;2.55;2.35;;;18.40;38.30;;;;;;5129493;27;20053;-93
2021/12/27 00:29:39;;;;;;;3.97;2.80;;;18.40;38.40;;;;;;5095369;28;20027;-91
2021/12/27 00:32:05;;;;;;;3.15;2.58;;;18.30;38.30;;;;;;5113448;28;20098;-93
2021/12/27 00:34:30;;;;;;;3.90;3.00;;;18.30;38.30;;;;;;5113253;28;20440;-90
2021/12/27 00:36:56;;;;;;;3.88;2.92;;;18.30;38.30;;;;;;5095511;28;20063;-88
2021/12/27 00:39:21;;;;;;;4.55;3.13;;;18.30;38.30;;;;;;5113117;28;20027;-89
2021/12/27 00:41:47;;;;;;;3.85;2.97;;;18.30;38.30;;;;;;5129218;27;20030;-92
2021/12/27 00:44:12;;;;;;;5.28;2.90;;;18.20;38.20;;;;;;5094914;28;20079;-91
2021/12/27 00:46:38;;;;;;;3.40;2.97;;;18.20;38.20;;;;;;5113329;28;20028;-95
2021/12/27 00:49:04;;;;;;;4.13;3.00;;;18.20;38.10;;;;;;5095243;28;20016;-91
2021/12/27 00:51:29;;;;;;;11.93;3.10;;;18.10;38.10;;;;;;5095098;28;20465;-89
2021/12/27 00:53:55;;;;;;;4.55;3.42;;;18.10;38.00;;;;;;5113077;28;20031;-88
2021/12/27 00:56:21;;;;;;;5.65;3.50;;;18.10;38.00;;;;;;5113235;28;20032;-91
2021/12/27 00:58:46;;;;;;;4.15;3.42;;;18.00;38.90;;;;;;5112998;28;20041;-91
2021/12/27 01:01:12;;;;;;;4.35;3.40;;;18.00;37.80;;;;;;5113190;28;20042;-88
2021/12/27 01:03:37;;;;;;;5.05;3.53;;;18.00;37.90;;;;;;5095047;28;20024;-91
2021/12/27 01:06:03;;;;;;;4.75;3.53;;;18.00;37.80;;;;;;5112993;28;20110;-92
2021/12/27 01:08:29;;;;;;;6.43;3.90;;;17.90;37.70;;;;;;5113096;28;20024;-92
2021/12/27 01:13:39;;;;;;;4.75;3.70;;;17.90;37.70;;;;;;5113049;28;20043;-87
2021/12/27 01:18:32;;;;;;;4.65;3.75;;;17.80;37.50;;;;;;5113079;28;20023;-93
2021/12/27 01:20:59;;;;;;;5.25;3.83;;;17.80;37.50;;;;;;5112983;28;20022;-90
2021/12/27 01:23:25;;;;;;;4.72;3.53;;;17.70;37.40;;;;;;5094854;28;20481;-90
2021/12/27 01:25:51;;;;;;;4.20;3.60;;;17.70;37.40;;;;;;5112808;28;20027;-89
2021/12/27 01:28:19;;;;;;;3.80;3.40;;;17.70;37.30;;;;;;5093646;28;20026;-91
2021/12/27 01:30:48;;;;;;;5.50;3.97;;;17.70;37.30;;;;;;5094436;28;20035;-93
2021/12/27 01:33:18;;;;;;;5.32;4.00;;;17.70;37.30;;;;;;5116812;28;20059;-87
2021/12/27 01:35:45;;;;;;;6.32;4.20;;;17.60;37.30;;;;;;5098542;28;20019;-89
2021/12/27 01:38:13;;;;;;;5.78;3.83;;;17.60;37.30;;;;;;5116752;28;20046;-89
2021/12/27 01:40:41;;;;;;;4.57;3.83;;;17.60;37.30;;;;;;5116480;28;20020;-89
2021/12/27 01:43:13;;;;;;;4.75;4.00;;;17.50;37.30;;;;;;5115345;28;20027;-91
2021/12/27 01:45:40;;;;;;;4.90;3.85;;;17.50;37.20;;;;;;5098195;28;20052;-93
2021/12/27 01:48:07;;;;;;;4.78;3.80;;;17.50;37.20;;;;;;5098593;28;20031;-90
2021/12/27 01:50:38;;;;;;;4.47;3.80;;;17.50;37.30;;;;;;5116590;28;20376;-92
2021/12/27 01:53:04;;;;;;;4.88;3.72;;;17.40;37.30;;;;;;5116490;28;20028;-92
2021/12/27 01:55:30;;;;;;;5.30;4.45;;;17.40;37.30;;;;;;5098190;28;20084;-90
2021/12/27 01:57:55;;;;;;;5.15;4.25;;;17.40;37.30;;;;;;5098152;28;20040;-92
2021/12/27 02:00:21;;;;;;;5.43;4.25;;;17.30;37.30;;;;;;5116232;28;20034;-89
2021/12/27 02:02:47;;;;;;;4.82;4.25;;;17.40;37.40;;;;;;5116474;28;20043;-91
2021/12/27 02:05:14;;;;;;;4.60;3.70;;;17.30;37.30;;;;;;5097797;28;20024;-92
2021/12/27 02:07:40;;;;;;;4.45;3.80;;;17.30;37.30;;;;;;5132282;27;20084;-87
2021/12/27 02:10:06;;;;;;;4.35;3.90;;;17.20;37.30;;;;;;5132345;27;20027;-93
2021/12/27 02:12:33;;;;;;;4.68;3.88;;;17.20;37.30;;;;;;5115950;28;20066;-91
2021/12/27 02:14:59;;;;;;;5.75;3.75;;;17.20;37.30;;;;;;5098046;28;20023;-90
2021/12/27 02:17:25;;;;;;;4.72;3.80;;;17.20;37.40;;;;;;5131998;27;20024;-92
2021/12/27 02:19:52;;;;;;;6.00;4.28;;;17.10;37.30;;;;;;5115883;28;20026;-92
2021/12/27 02:22:18;;;;;;;5.40;3.80;;;17.10;37.30;;;;;;5098051;28;20031;-89
2021/12/27 02:24:44;;;;;;;4.28;3.70;;;17.10;37.40;;;;;;5115524;28;20019;-92
2021/12/27 02:27:15;;;;;;;5.00;4.10;;;17.10;37.40;;;;;;5115693;28;20492;-88
2021/12/27 02:29:41;;;;;;;4.65;3.78;;;17.10;37.40;;;;;;5131435;27;20015;-89
2021/12/27 02:32:07;;;;;;;4.82;3.97;;;17.00;37.30;;;;;;5115684;28;20039;-93
2021/12/27 02:34:33;;;;;;;5.35;3.80;;;17.00;37.30;;;;;;5115690;28;20023;-94
2021/12/27 02:36:59;;;;;;;5.72;4.05;;;17.00;37.30;;;;;;5115553;28;20085;-92
2021/12/27 02:39:25;;;;;;;4.28;3.63;;;17.00;37.30;;;;;;5097518;28;20023;-91
2021/12/27 02:41:52;;;;;;;5.22;3.97;;;16.90;37.30;;;;;;5096820;28;20039;-87
2021/12/27 02:44:18;;;;;;;5.57;4.25;;;16.90;37.40;;;;;;5097086;28;20126;-88
2021/12/27 02:46:43;;;;;;;5.60;4.35;;;16.90;37.30;;;;;;5115456;28;20103;-90
2021/12/27 02:49:09;;;;;;;5.22;4.57;;;16.90;37.40;;;;;;5115354;28;20023;-89
2021/12/27 02:51:35;;;;;;;5.53;3.95;;;16.80;37.30;;;;;;5131258;27;20069;-88
2021/12/27 02:54:00;;;;;;;5.35;4.00;;;16.80;37.30;;;;;;5115285;28;20032;-90
2021/12/27 02:56:26;;;;;;;5.03;4.18;;;16.80;37.40;;;;;;5115295;28;20027;-91
2021/12/27 02:58:52;;;;;;;5.75;3.97;;;16.80;37.30;;;;;;5096917;28;20423;-93
2021/12/27 03:01:23;;;;;;;6.28;3.90;;;16.80;37.40;;;;;;5097072;28;20034;-91
2021/12/27 03:03:49;;;;;;;5.32;4.00;;;16.70;37.40;;;;;;5115051;28;20507;-91
2021/12/27 03:06:14;;;;;;;4.93;3.90;;;16.70;37.40;;;;;;5131022;27;20118;-90
2021/12/27 03:08:41;;;;;;;5.95;4.43;;;16.70;37.40;;;;;;5131145;27;20106;-88
2021/12/27 03:11:09;;;;;;;4.60;4.03;;;16.60;37.40;;;;;;5096635;28;20533;-90
2021/12/27 03:13:38;;;;;;;5.00;4.03;;;16.60;37.40;;;;;;5097006;28;20358;-91
2021/12/27 03:16:09;;;;;;;4.82;3.95;;;16.60;37.50;;;;;;5114589;28;20026;-90
2021/12/27 03:18:37;;;;;;;4.78;4.07;;;16.60;37.50;;;;;;5096775;28;20020;-94
2021/12/27 03:21:04;;;;;;;5.32;4.00;;;16.60;37.50;;;;;;5114533;28;20027;-88
2021/12/27 03:23:30;;;;;;;5.85;4.10;;;16.60;37.60;;;;;;5114637;28;20024;-91
2021/12/27 03:25:56;;;;;;;5.60;4.28;;;16.50;37.50;;;;;;5114401;28;20034;-91
2021/12/27 03:28:22;;;;;;;6.13;4.25;;;16.50;37.50;;;;;;5114651;28;20020;-88
2021/12/27 03:30:49;;;;;;;5.10;3.90;;;16.50;37.50;;;;;;5096235;28;20024;-90
2021/12/27 03:33:15;;;;;;;4.47;3.88;;;16.50;37.60;;;;;;5096147;28;20495;-89
2021/12/27 03:35:51;;;;;;;4.60;3.95;;;16.40;37.60;;;;;;5114339;28;20024;-89
2021/12/27 03:38:18;;;;;;;6.20;4.47;;;16.40;38.50;;;;;;5096354;28;20031;-91
2021/12/27 03:40:45;;;;;;;5.55;4.32;;;16.40;37.60;;;;;;5114248;28;20106;-92
2021/12/27 03:43:12;;;;;;;5.75;4.45;;;16.40;37.60;;;;;;5096227;28;20031;-89
2021/12/27 03:45:39;;;;;;;5.85;4.50;;;16.40;37.60;;;;;;5095957;28;20047;-89
2021/12/27 03:48:07;;;;;;;5.50;4.40;;;16.40;37.60;;;;;;5114120;28;20024;-94
2021/12/27 03:50:34;;;;;;;6.57;4.55;;;16.30;37.60;;;;;;5114262;28;20545;-89
2021/12/27 03:53:00;;;;;;;6.75;4.38;;;16.30;37.50;;;;;;5113857;28;20039;-90
2021/12/27 03:55:26;;;;;;;5.93;4.10;;;16.30;37.60;;;;;;5129508;27;20381;-89
2021/12/27 03:57:55;;;;;;;4.35;3.95;;;16.30;37.70;;;;;;5114067;28;20035;-89
2021/12/27 04:02:57;;;;;;;6.50;4.60;;;16.20;37.70;;;;;;5113877;28;20038;-91
2021/12/27 04:05:23;;;;;;;5.85;4.63;;;16.20;37.70;;;;;;5129852;27;20080;-93
2021/12/27 04:07:59;;;;;;;5.18;4.10;;;16.20;37.60;;;;;;5095612;28;20019;-94
2021/12/27 04:10:26;;;;;;;5.90;4.53;;;16.10;37.60;;;;;;5113670;28;20042;-90
2021/12/27 04:12:51;;;;;;;6.78;4.70;;;16.10;37.60;;;;;;5095829;28;20122;-89
2021/12/27 04:15:17;;;;;;;4.95;4.28;;;16.10;37.60;;;;;;5094845;28;20126;-87
2021/12/27 04:17:43;;;;;;;5.95;4.38;;;16.10;37.70;;;;;;5129332;27;20027;-91
2021/12/27 04:20:09;;;;;;;6.07;4.78;;;16.10;37.70;;;;;;5113663;28;20389;-92
2021/12/27 04:22:34;;;;;;;5.60;4.60;;;16.10;37.60;;;;;;5113669;28;20097;-89
2021/12/27 04:25:00;;;;;;;6.30;4.70;;;16.00;37.50;;;;;;5113404;28;20030;-91
2021/12/27 04:27:27;;;;;;;5.45;4.38;;;16.00;37.50;;;;;;5129630;27;20049;-90
2021/12/27 04:29:52;;;;;;;7.93;5.03;;;16.00;37.50;;;;;;5113263;28;20080;-92
2021/12/27 04:32:18;;;;;;;7.82;5.15;;;16.00;37.50;;;;;;5113300;28;20019;-91
2021/12/27 04:34:44;;;;;;;6.10;4.57;;;16.00;37.50;;;;;;5113418;28;20069;-88
2021/12/27 04:37:09;;;;;;;5.70;4.75;;;15.90;37.50;;;;;;5129210;27;20485;-87
2021/12/27 04:39:35;;;;;;;5.80;4.93;;;15.90;37.50;;;;;;5095467;28;20088;-87
2021/12/27 04:42:01;;;;;;;6.85;5.38;;;15.90;37.40;;;;;;5113110;28;20472;-89
2021/12/27 04:44:27;;;;;;;6.22;4.65;;;15.90;37.40;;;;;;5113168;28;20055;-91
2021/12/27 04:46:52;;;;;;;6.78;5.18;;;15.90;37.40;;;;;;5113288;28;20487;-86
2021/12/27 04:49:18;;;;;;;5.68;4.82;;;15.80;37.30;;;;;;5113300;28;20027;-88
2021/12/27 04:51:44;;;;;;;6.78;5.10;;;15.80;38.40;;;;;;5113441;28;20080;-88
2021/12/27 04:54:10;;;;;;;7.15;5.10;;;15.80;37.50;;;;;;5113052;28;20015;-89
2021/12/27 04:56:36;;;;;;;5.93;5.07;;;15.80;37.60;;;;;;5095160;28;20463;-88
2021/12/27 04:59:02;;;;;;;6.78;4.55;;;15.80;37.90;;;;;;5094935;28;20059;-90
2021/12/27 05:01:28;;;;;;;5.00;3.97;;;15.70;38.00;;;;;;5113404;28;20027;-88
2021/12/27 05:03:53;;;;;;;6.05;4.68;;;15.70;38.00;;;;;;5113296;28;20028;-87
2021/12/27 05:06:20;;;;;;;6.53;4.82;;;15.70;38.10;;;;;;5097953;28;20023;-87
2021/12/27 05:08:46;;;;;;;5.25;4.40;;;15.70;38.20;;;;;;5117330;28;20024;-88
2021/12/27 05:11:11;;;;;;;5.15;4.28;;;15.70;38.20;;;;;;5133152;27;20026;-87
2021/12/27 05:13:37;;;;;;;6.70;4.00;;;15.70;38.40;;;;;;5117158;28;20031;-93
2021/12/27 05:16:03;;;;;;;6.25;4.60;;;15.70;38.50;;;;;;5116968;28;20023;-88
2021/12/27 05:18:29;;;;;;;5.35;4.13;;;15.60;38.50;;;;;;5117245;28;20488;-94
2021/12/27 05:20:55;;;;;;;5.40;3.88;;;15.60;38.70;;;;;;5098977;28;20059;-88
2021/12/27 05:23:21;;;;;;;5.18;4.25;;;15.60;38.80;;;;;;5117075;28;20051;-90
2021/12/27 05:25:47;;;;;;;4.93;3.80;;;15.60;38.90;;;;;;5133177;27;20396;-91
2021/12/27 05:28:13;;;;;;;5.10;4.20;;;15.60;38.90;;;;;;5117004;28;20536;-88
2021/12/27 05:30:39;;;;;;;5.35;3.97;;;15.60;39.10;;;;;;5117175;28;20023;-92
2021/12/27 05:33:05;;;;;;;4.93;4.10;;;15.60;39.20;;;;;;5098752;28;20023;-88
2021/12/27 05:35:30;;;;;;;4.70;3.80;;;15.60;39.30;;;;;;5116744;28;20149;-90
2021/12/27 05:37:56;;;;;;;4.70;3.95;;;15.60;39.30;;;;;;5098781;28;20035;-88
2021/12/27 05:40:23;;;;;;;5.22;3.90;;;15.60;40.40;;;;;;5116597;28;20024;-87
2021/12/27 05:42:50;;;;;;;4.15;3.58;;;15.50;39.50;;;;;;5116830;28;20028;-93
2021/12/27 05:45:17;;;;;;;4.68;3.53;;;15.50;39.50;;;;;;5116617;28;20104;-87
2021/12/27 05:47:44;;;;;;;4.50;3.78;;;15.50;39.60;;;;;;5116820;28;20473;-91
2021/12/27 05:50:11;;;;;;;4.50;3.47;;;15.50;39.70;;;;;;5116664;28;20059;-91
2021/12/27 05:52:37;;;;;;;4.05;3.58;;;15.50;40.70;;;;;;5116391;28;20016;-87
2021/12/27 05:55:08;;;;;;;4.47;3.50;;;15.50;39.80;;;;;;5116453;28;20031;-90
2021/12/27 05:57:35;;;;;;;4.45;3.85;;;15.50;39.80;;;;;;5116155;28;20024;-93
2021/12/27 06:00:03;;;;;;;4.15;3.65;;;15.50;39.80;;;;;;5116240;28;20503;-90
2021/12/27 06:02:28;;;;;;;4.63;3.90;;;15.50;40.90;;;;;;5116275;28;20102;-90
2021/12/27 06:04:54;;;;;;;4.53;3.50;;;15.50;39.80;;;;;;5116239;28;20165;-91
2021/12/27 06:07:19;;;;;;;3.90;3.28;;;15.40;39.80;;;;;;5116242;28;20027;-87
2021/12/27 06:09:45;;;;;;;4.15;3.53;;;15.40;39.80;;;;;;5116165;28;20118;-90
2021/12/27 06:12:11;;;;;;;4.35;3.22;;;15.50;39.80;;;;;;5097868;28;20020;-89
2021/12/27 06:14:38;;;;;;;4.35;3.38;;;15.50;39.80;;;;;;5097815;28;20502;-87
2021/12/27 06:17:03;;;;;;;5.65;3.65;;;15.50;39.90;;;;;;5131382;27;20024;-90
2021/12/27 06:19:29;;;;;;;4.20;3.45;;;15.50;39.80;;;;;;5115991;28;20035;-87
2021/12/27 06:21:55;;;;;;;4.68;3.70;;;15.50;39.80;;;;;;5132018;27;20031;-87
2021/12/27 06:24:20;;;;;;;4.43;3.65;;;15.50;40.80;;;;;;5097764;28;20020;-89
2021/12/27 06:26:47;;;;;;;5.35;3.90;;;15.60;39.80;;;;;;5114604;27;20027;-87
2021/12/27 06:29:13;;;;;;;4.45;3.65;;;15.60;39.80;;;;;;5097727;28;20027;-93
2021/12/27 06:31:38;;;;;;;4.70;3.60;;;15.70;39.70;;;;;;5132134;27;20028;-86
2021/12/27 06:34:04;;;;;;;3.90;3.50;;;15.80;39.70;;;;;;5115840;28;20024;-91
2021/12/27 06:36:30;;;;;;;5.05;3.63;;;15.90;39.50;;;;;;5115521;28;20030;-90
2021/12/27 06:38:55;;;;;;;5.03;3.72;;;16.00;39.50;;;;;;5115481;28;20051;-91
2021/12/27 06:41:24;;;;;;;3.95;3.40;;;16.10;39.40;;;;;;5097495;28;20020;-89
2021/12/27 06:43:51;;;;;;;4.78;3.70;;;16.20;39.30;;;;;;5115276;28;20024;-92
2021/12/27 06:46:16;;;;;;;4.13;3.30;;;16.40;39.20;;;;;;5115637;28;20110;-88
2021/12/27 06:48:42;;;;;;;4.53;3.45;;;16.50;39.10;;;;;;5115479;28;20107;-93
2021/12/27 06:51:07;;;;;;;4.90;3.65;;;16.60;39.00;;;;;;5097412;28;20022;-88
2021/12/27 06:53:33;;;;;;;4.45;3.53;;;16.80;38.90;;;;;;5115412;28;20365;-88
2021/12/27 06:55:59;;;;;;;4.45;3.60;;;16.90;38.70;;;;;;5096905;28;20023;-91
2021/12/27 06:58:25;;;;;;;4.45;3.28;;;17.10;38.60;;;;;;5097120;28;20537;-88
2021/12/27 07:00:51;;;;;;;4.30;3.70;;;17.20;38.40;;;;;;5115229;28;20020;-89
2021/12/27 07:03:16;;;;;;;4.13;3.28;;;17.40;38.30;;;;;;5115154;28;20149;-92
2021/12/27 07:05:43;;;;;;;4.15;3.35;;;17.60;38.10;;;;;;5097095;28;20122;-91
2021/12/27 07:08:09;;;;;;;3.78;3.10;;;17.80;37.90;;;;;;5096586;28;20027;-90
2021/12/27 07:10:35;;;;;;;3.75;3.20;;;18.10;37.70;;;;;;5115038;28;20035;-90
2021/12/27 07:13:03;;;;;;;4.70;3.63;;;18.30;37.50;;;;;;5130983;27;20039;-92
2021/12/27 07:15:32;;;;;;;4.60;3.20;;;18.50;37.30;;;;;;5114997;28;20023;-92
2021/12/27 07:17:58;;;;;;;4.28;3.08;;;18.70;37.00;;;;;;5114792;28;20039;-88
2021/12/27 07:20:24;;;;;;;3.92;3.20;;;18.90;36.80;;;;;;5114780;28;20023;-89
2021/12/27 07:22:50;;;;;;;3.88;3.28;;;19.00;36.50;;;;;;5096428;28;20031;-91
2021/12/27 07:25:16;;;;;;;3.80;3.40;;;19.20;36.30;;;;;;5113150;28;20031;-91
2021/12/27 07:27:42;;;;;;;4.65;3.47;;;19.40;36.10;;;;;;5095945;28;20031;-88
2021/12/27 07:30:11;;;;;;;4.53;3.33;;;19.60;36.00;;;;;;5112864;28;20039;-90
2021/12/27 07:32:37;;;;;;;4.97;3.60;;;19.70;35.70;;;;;;5114475;28;20019;-90
2021/12/27 07:35:05;;;;;;;4.45;3.42;;;19.80;36.40;;;;;;5114743;28;20039;-87
2021/12/27 07:37:30;;;;;;;5.88;3.63;;;19.90;35.30;;;;;;5096495;28;20472;-88
2021/12/27 07:39:56;;;;;;;5.13;3.65;;;20.00;35.10;;;;;;5095993;28;20080;-89
2021/12/27 07:42:22;;;;;;;4.53;3.38;;;20.10;35.00;;;;;;5114304;28;20020;-83
2021/12/27 07:44:47;;;;;;;8.35;3.67;;;20.20;35.00;;;;;;5113745;28;20054;-86
2021/12/27 07:47:15;;;;;;;8.18;4.43;;;20.30;35.10;;;;;;5113884;28;20358;-92
2021/12/27 07:49:41;;;;;;;12.43;3.97;;;20.40;35.30;;;;;;5112777;28;20024;-89
2021/12/27 07:52:07;;;;;;;12.23;4.05;;;20.40;35.40;;;;;;5130043;27;20107;-90
2021/12/27 07:54:34;;;;;;;7.25;3.70;;;20.40;35.40;;;;;;5096114;28;20023;-94
2021/12/27 07:57:00;;;;;;;6.88;3.50;;;20.40;35.50;;;;;;5112765;28;20084;-92
2021/12/27 07:59:27;;;;;;;9.35;3.60;;;20.40;35.60;;;;;;5095884;28;20073;-90
2021/12/27 08:01:52;;;;;;;6.45;3.42;;;20.40;35.60;;;;;;5095838;28;20027;-93
2021/12/27 08:04:18;;;;;;;7.00;3.67;;;20.50;35.70;;;;;;5113861;28;20544;-92
2021/12/27 08:06:44;;;;;;;6.35;3.22;;;20.50;35.80;;;;;;5129571;27;20023;-89
2021/12/27 08:09:10;;;;;;;5.85;3.30;;;20.50;35.80;;;;;;5095896;28;20027;-90
2021/12/27 08:11:36;;;;;;;6.38;3.60;;;20.50;35.90;;;;;;5113926;28;20057;-87
2021/12/27 08:14:03;;;;;;;6.72;3.70;;;20.50;36.00;;;;;;5113227;28;20024;-88
2021/12/27 08:16:28;;;;;;;15.95;4.05;;;20.50;36.10;;;;;;5094443;28;20031;-85
2021/12/27 08:18:55;;;;;;;19.38;4.00;;;20.40;36.20;;;;;;5112834;28;20024;-85
2021/12/27 08:21:22;;;;;;;15.85;4.45;;;20.40;36.40;;;;;;5112721;28;20043;-83
2021/12/27 08:23:48;;;;;;;18.90;4.60;;;20.40;36.60;;;;;;5112823;28;20020;-85
2021/12/27 08:26:15;;;;;;;17.27;4.65;;;20.40;36.70;;;;;;5112882;28;20024;-83
2021/12/27 08:28:42;;;;;;;15.85;4.07;;;20.40;36.90;;;;;;5112399;28;20129;-86
2021/12/27 08:31:08;;;;;;;15.88;4.68;;;20.40;37.10;;;;;;5112748;28;20035;-86
2021/12/27 08:33:33;;;;;;;20.23;4.70;;;20.30;37.10;;;;;;5112503;28;20032;-85
2021/12/27 08:35:59;;;;;;;12.65;4.00;;;20.40;37.20;;;;;;5112336;28;20035;-86
2021/12/27 08:38:25;;;;;;;15.90;3.92;;;20.30;37.20;;;;;;5094153;28;20026;-83
2021/12/27 08:40:50;;;;;;;16.20;4.50;;;20.30;37.30;;;;;;5111977;28;20019;-85
2021/12/27 08:43:16;;;;;;;12.98;4.20;;;20.30;38.30;;;;;;5112578;28;20119;-86
2021/12/27 08:45:42;;;;;;;11.77;4.53;;;20.30;37.30;;;;;;5112045;28;20059;-87
2021/12/27 08:48:07;;;;;;;13.57;4.32;;;20.30;37.40;;;;;;5112371;28;20389;-84
2021/12/27 08:50:33;;;;;;;17.75;4.80;;;20.20;37.40;;;;;;5112835;28;20134;-87
2021/12/27 08:52:59;;;;;;;12.38;4.43;;;20.30;37.40;;;;;;5112639;28;20053;-88
2021/12/27 08:55:24;;;;;;;11.60;4.22;;;20.20;37.40;;;;;;5112563;28;20059;-89
2021/12/27 08:57:50;;;;;;;11.48;4.13;;;20.20;37.40;;;;;;5112288;28;20492;-89
2021/12/27 09:00:16;;;;;;;12.20;3.95;;;20.30;37.40;;;;;;5094565;28;20028;-89
2021/12/27 09:02:44;;;;;;;13.88;4.20;;;20.20;37.40;;;;;;5112422;28;20180;-88
2021/12/27 09:05:09;;;;;;;8.13;3.70;;;20.20;37.40;;;;;;5112565;28;20028;-89
2021/12/27 09:07:35;;;;;;;15.32;4.20;;;20.20;37.50;;;;;;5112698;28;20153;-87
2021/12/27 09:10:01;;;;;;;14.60;4.57;;;20.20;37.80;;;;;;5112550;28;20023;-88
2021/12/27 09:12:28;;;;;;;12.07;4.20;;;20.20;38.10;;;;;;5112561;28;20101;-88
2021/12/27 09:14:54;;;;;;;21.50;4.32;;;20.20;38.40;;;;;;5112288;28;20028;-88
2021/12/27 09:17:20;;;;;;;18.13;4.80;;;20.20;38.60;;;;;;5112145;28;20077;-89
2021/12/27 09:19:45;;;;;;;19.17;4.88;;;20.20;38.80;;;;;;5112341;28;20027;-87
2021/12/27 09:22:13;;;;;;;16.90;4.60;;;20.20;39.00;;;;;;5112119;28;20023;-88
2021/12/27 09:24:39;;;;;;;17.85;4.40;;;20.20;39.00;;;;;;5112390;28;20081;-87
2021/12/27 09:27:05;;;;;;;20.13;4.38;;;20.20;39.10;;;;;;5111820;28;20027;-88
2021/12/27 09:29:30;;;;;;;12.50;3.90;;;20.20;39.10;;;;;;5112514;28;20031;-87
2021/12/27 09:31:57;;;;;;;13.13;4.32;;;20.10;39.20;;;;;;5111889;28;20115;-89
2021/12/27 09:34:22;;;;;;;15.05;4.22;;;20.10;39.10;;;;;;5112137;28;20380;-87
2021/12/27 09:36:48;;;;;;;15.95;4.15;;;20.10;39.10;;;;;;5112300;28;20053;-86
2021/12/27 09:39:14;;;;;;;16.23;4.20;;;20.10;39.20;;;;;;5111866;28;20461;-86
2021/12/27 09:41:40;;;;;;;18.45;4.65;;;20.10;39.30;;;;;;5112253;28;20020;-89
2021/12/27 09:44:05;;;;;;;17.60;4.45;;;20.10;39.30;;;;;;5111540;28;20044;-88
2021/12/27 09:46:31;;;;;;;12.32;4.15;;;20.10;39.30;;;;;;5112436;28;20038;-89
2021/12/27 09:48:59;;;;;;;18.77;4.13;;;20.10;39.40;;;;;;5112053;28;20031;-86
2021/12/27 09:51:26;;;;;;;15.75;4.30;;;20.10;39.40;;;;;;5093889;28;20388;-86
2021/12/27 09:53:53;;;;;;;14.18;4.43;;;20.10;39.30;;;;;;5124457;28;20028;-90
2021/12/27 09:56:18;;;;;;;11.88;4.20;;;20.10;39.20;;;;;;5109056;28;20019;-88
2021/12/27 09:58:44;;;;;;;15.85;4.13;;;20.10;39.20;;;;;;5144939;27;20043;-88
2021/12/27 10:01:11;;;;;;;14.43;3.90;;;20.10;39.20;;;;;;5128886;28;20054;-88
2021/12/27 10:03:47;;;;;;;12.52;3.75;;;20.10;39.20;;;;;;5100173;28;20020;-93
2021/12/27 10:06:14;;;;;;;9.68;3.58;;;20.20;39.10;;;;;;5116247;28;20032;-90
2021/12/27 10:08:45;;;;;;;14.52;4.10;;;20.10;39.10;;;;;;5132313;27;20020;-93
2021/12/27 10:11:33;;;;;;;14.82;4.15;;;20.10;39.10;;;;;;5098031;28;20068;-90
2021/12/27 10:14:14;;;;;;;13.07;4.55;;;20.20;39.00;;;;;;5097937;28;20025;-92
2021/12/27 10:16:43;;;;;;;13.40;4.65;;;20.10;38.90;;;;;;5097799;28;20027;-92
2021/12/27 10:19:11;;;;;;;10.20;3.90;;;20.20;39.00;;;;;;5115920;28;20373;-90
2021/12/27 10:21:41;;;;;;;8.13;4.13;;;20.20;38.90;;;;;;5098049;28;20067;-94
2021/12/27 10:24:14;;;;;;;10.07;3.38;;;20.20;39.00;;;;;;5097842;28;20027;-94
2021/12/27 10:26:40;;;;;;;13.13;3.95;;;20.20;39.00;;;;;;5116005;28;20073;-93
2021/12/27 10:29:10;;;;;;;8.77;3.92;;;20.20;38.90;;;;;;5097567;28;20038;-92
2021/12/27 10:32:04;;;;;;;10.70;3.95;;;20.20;38.90;;;;;;5097626;28;20026;-93
2021/12/27 10:34:43;;;;;;;;;;;20.30;39.00;;;;;;5132292;27;20031;-92
2021/12/27 10:37:21;;;;;;;12.10;4.05;;;20.20;39.00;;;;;;5097395;28;19914;-94
2021/12/27 10:39:48;;;;;;;7.85;3.80;;;20.20;38.90;;;;;;5097419;28;20380;-90
2021/12/27 10:42:45;;;;;;;10.85;3.55;;;20.20;39.90;;;;;;5115908;28;20019;-89
2021/12/27 10:45:19;;;;;;;9.35;3.83;;;20.30;39.10;;;;;;5092607;28;20055;-89
2021/12/27 10:47:51;;;;;;;6.93;3.63;;;20.30;40.00;;;;;;5100182;28;20040;-88
2021/12/27 10:50:23;;;;;;;9.82;3.60;;;20.30;38.90;;;;;;5108161;28;20035;-87
2021/12/27 10:52:53;;;;;;;8.20;3.60;;;20.30;38.80;;;;;;5105230;28;20380;-92
2021/12/27 10:55:23;;;;;;;8.80;3.63;;;20.30;38.80;;;;;;5108193;28;20023;-87
2021/12/27 10:57:50;;;;;;;10.63;3.38;;;20.30;38.80;;;;;;5110003;28;20507;-87
2021/12/27 11:00:29;;;;;;;6.13;3.22;;;20.30;38.80;;;;;;5125975;28;20137;-88
2021/12/27 11:02:57;;;;;;;11.40;4.00;;;20.30;38.90;;;;;;5109258;28;20115;-90
2021/12/27 11:05:25;;;;;;;8.93;3.30;;;20.30;38.90;;;;;;5105566;28;20023;-90
2021/12/27 11:08:00;;;;;;;9.05;3.55;;;20.30;38.80;;;;;;5125348;28;20111;-87
2021/12/27 11:10:27;;;;;;;8.95;3.33;;;20.30;38.80;;;;;;5124908;28;20024;-88
2021/12/27 11:12:53;;;;;;;10.70;3.50;;;20.30;38.90;;;;;;5118535;28;20020;-90
2021/12/27 11:15:19;;;;;;;11.88;3.70;;;20.30;39.00;;;;;;5116006;28;20059;-92
2021/12/27 11:17:45;;;;;;;11.40;3.55;;;20.30;38.90;;;;;;5115916;28;20059;-91
2021/12/27 11:20:12;;;;;;;10.23;4.00;;;20.30;40.00;;;;;;5114635;28;20084;-92
2021/12/27 11:22:41;;;;;;;10.20;3.63;;;20.30;39.00;;;;;;5097937;28;20032;-88
2021/12/27 11:25:28;;;;;;;11.38;3.78;;;20.30;38.90;;;;;;5118305;28;20038;-87
2021/12/27 11:27:55;;;;;;;11.35;4.57;;;20.30;39.00;;;;;;5100759;28;20028;-94
2021/12/27 11:30:25;;;;;;;9.95;3.95;;;20.30;38.90;;;;;;5100935;28;20035;-89
2021/12/27 11:33:16;;;;;;;10.15;3.60;;;20.30;38.90;;;;;;5101448;28;20062;-89
2021/12/27 11:35:51;;;;;;;9.65;4.07;;;20.40;38.90;;;;;;5121481;28;20078;-88
2021/12/27 11:38:42;;;;;;;10.48;3.97;;;20.30;38.80;;;;;;5103108;28;20024;-89
2021/12/27 11:41:24;;;;;;;12.55;4.18;;;20.30;38.80;;;;;;5113361;28;20027;-94
2021/12/27 11:44:02;;;;;;;9.40;3.50;;;20.30;38.80;;;;;;5120174;28;20069;-89
2021/12/27 11:46:31;;;;;;;8.18;3.72;;;20.30;38.90;;;;;;5104307;28;20023;-92
2021/12/27 11:48:59;;;;;;;11.80;3.72;;;20.30;38.90;;;;;;5103536;28;20031;-91
2021/12/27 11:51:36;;;;;;;10.70;3.95;;;20.30;38.80;;;;;;5103153;28;20066;-91
2021/12/27 11:54:05;;;;;;;10.93;3.85;;;20.30;38.80;;;;;;5136836;27;20027;-89
2021/12/27 11:57:03;;;;;;;8.65;3.72;;;20.30;38.80;;;;;;5101137;28;20028;-93
2021/12/27 11:59:35;;;;;;;14.13;3.70;;;20.30;38.80;;;;;;5085985;28;20492;-88
2021/12/27 12:02:24;;;;;;;8.50;4.10;;;20.20;38.90;;;;;;5140606;27;20019;-88
2021/12/27 12:04:52;;;;;;;7.80;3.47;;;20.30;39.00;;;;;;5120371;28;20038;-91
2021/12/27 12:07:33;;;;;;;7.70;3.80;;;20.20;39.00;;;;;;5134573;27;20545;-94
2021/12/27 12:10:05;;;;;;;9.35;4.40;;;20.20;39.00;;;;;;5106118;28;20031;-87
2021/12/27 12:12:33;;;;;;;8.43;4.20;;;20.30;39.10;;;;;;5141902;27;20385;-86
2021/12/27 12:15:00;;;;;;;9.85;4.13;;;20.20;39.10;;;;;;5125942;28;20016;-86
2021/12/27 12:17:37;;;;;;;9.93;4.32;;;20.20;39.10;;;;;;5108138;28;20032;-86
2021/12/27 12:20:04;;;;;;;8.20;4.47;;;20.20;39.10;;;;;;5126446;28;20019;-87
2021/12/27 12:22:42;;;;;;;13.77;3.80;;;20.20;39.30;;;;;;5126336;28;20488;-86
2021/12/27 12:25:13;;;;;;;10.85;3.72;;;20.20;39.40;;;;;;5104761;28;20015;-87
2021/12/27 12:27:49;;;;;;;7.82;4.18;;;20.20;39.30;;;;;;5104230;28;20023;-87
2021/12/27 12:30:15;;;;;;;10.93;4.43;;;20.20;39.40;;;;;;5123504;28;20037;-87
2021/12/27 12:33:07;;;;;;;10.02;4.20;;;20.20;39.40;;;;;;5126045;28;20024;-87
2021/12/27 12:35:57;;;;;;;11.82;4.45;;;20.20;39.40;;;;;;5141199;27;20031;-87
2021/12/27 12:38:33;;;;;;;12.52;4.40;;;20.20;39.50;;;;;;5124488;28;20020;-89
2021/12/27 12:41:16;;;;;;;9.63;4.55;;;20.10;39.50;;;;;;5140818;27;20027;-88
2021/12/27 12:43:57;;;;;;;11.38;4.20;;;20.10;39.50;;;;;;5123334;28;20016;-87
2021/12/27 12:46:38;;;;;;;9.57;4.68;;;20.10;39.50;;;;;;5124018;28;20027;-87
2021/12/27 12:49:09;;;;;;;11.05;4.32;;;20.10;39.60;;;;;;5106414;28;20361;-87
2021/12/27 12:51:42;;;;;;;10.73;4.60;;;20.10;39.50;;;;;;5105673;28;20477;-87
2021/12/27 12:54:22;;;;;;;13.52;4.50;;;20.10;39.50;;;;;;5105185;28;20023;-87
2021/12/27 12:57:02;;;;;;;13.60;5.32;;;20.10;39.50;;;;;;5122378;28;20439;-90